createdAt,value
2018-09-27T00:00:25.195Z,63.92
2018-09-27T00:02:53.839Z,63.88
2018-09-27T00:05:23.159Z,64.68
2018-09-27T00:07:52.624Z,64.31
2018-09-27T00:10:21.484Z,64.04
2018-09-27T00:12:50.200Z,64.75
2018-09-27T00:15:18.844Z,65.53
2018-09-27T00:17:47.392Z,64.72
2018-09-27T00:20:15.996Z,65.19
2018-09-27T00:22:44.729Z,64.62
2018-09-27T00:25:13.303Z,64.69
2018-09-27T00:27:41.852Z,64.59
2018-09-27T00:30:10.738Z,64.81
2018-09-27T00:32:39.263Z,65.36
2018-09-27T00:35:07.575Z,64.77
2018-09-27T00:37:36.172Z,65.25
2018-09-27T00:40:04.836Z,64.57
2018-09-27T00:42:33.416Z,64.75
2018-09-27T00:45:02.027Z,64.77
2018-09-27T00:47:30.700Z,65.02
2018-09-27T00:49:59.378Z,66.17
2018-09-27T00:52:27.960Z,65.47
2018-09-27T00:54:56.527Z,64.78
2018-09-27T00:57:25.152Z,64.87
2018-09-27T00:59:53.689Z,64.67
2018-09-27T01:02:22.227Z,65.31
2018-09-27T01:04:50.788Z,64.49
2018-09-27T01:07:19.352Z,66.05
2018-09-27T01:09:48.008Z,65.35
2018-09-27T01:12:16.576Z,64.97
2018-09-27T01:14:45.113Z,64.02
2018-09-27T01:17:13.699Z,64.02
2018-09-27T01:19:43.090Z,64.87
2018-09-27T01:22:11.835Z,65.20
2018-09-27T01:24:40.355Z,64.97
2018-09-27T01:27:09.014Z,65.53
2018-09-27T01:29:37.592Z,64.94
2018-09-27T01:32:06.136Z,64.92
2018-09-27T01:34:34.807Z,64.44
2018-09-27T01:37:03.384Z,66.19
2018-09-27T01:39:31.905Z,65.58
2018-09-27T01:42:00.452Z,65.26
2018-09-27T01:44:29.072Z,64.32
2018-09-27T01:46:57.633Z,63.75
2018-09-27T01:49:26.458Z,62.97
2018-09-27T01:51:55.004Z,62.27
2018-09-27T01:54:23.683Z,63.65
2018-09-27T01:56:52.217Z,63.47
2018-09-27T01:59:20.784Z,63.17
2018-09-27T02:01:49.342Z,63.64
2018-09-27T02:04:17.888Z,63.64
2018-09-27T02:06:46.446Z,64.32
2018-09-27T02:09:15.036Z,64.60
2018-09-27T02:11:43.659Z,64.53
2018-09-27T02:14:12.204Z,63.90
2018-09-27T02:16:40.875Z,64.03
2018-09-27T02:19:09.408Z,64.29
2018-09-27T02:24:27.972Z,64.23
2018-09-27T02:26:56.520Z,64.66
2018-09-27T02:29:25.064Z,63.87
2018-09-27T02:31:53.596Z,63.14
2018-09-27T02:34:22.145Z,63.62
2018-09-27T02:36:50.724Z,64.02
2018-09-27T02:39:19.377Z,63.82
2018-09-27T02:41:47.918Z,63.08
2018-09-27T02:44:16.475Z,63.78
2018-09-27T02:46:45.016Z,63.01
2018-09-27T02:49:13.681Z,63.24
2018-09-27T02:51:42.256Z,62.76
2018-09-27T02:54:10.816Z,62.32
2018-09-27T02:56:39.369Z,62.11
2018-09-27T02:59:08.000Z,62.09
2018-09-27T03:01:36.545Z,62.18
2018-09-27T03:04:05.111Z,61.75
2018-09-27T03:06:33.653Z,61.20
2018-09-27T03:09:02.168Z,61.49
2018-09-27T03:11:30.739Z,61.71
2018-09-27T03:13:59.279Z,61.77
2018-09-27T03:16:27.799Z,61.55
2018-09-27T03:18:56.340Z,62.38
2018-09-27T03:21:24.871Z,61.98
2018-09-27T03:23:53.431Z,61.25
2018-09-27T03:26:21.976Z,60.47
2018-09-27T03:28:50.563Z,59.37
2018-09-27T03:31:19.125Z,60.08
2018-09-27T03:33:47.706Z,59.76
2018-09-27T03:36:16.425Z,59.10
2018-09-27T03:38:44.984Z,59.39
2018-09-27T03:41:13.544Z,60.40
2018-09-27T03:43:42.298Z,61.13
2018-09-27T03:46:11.614Z,61.74
2018-09-27T03:48:40.244Z,62.43
2018-09-27T03:51:08.824Z,62.88
2018-09-27T03:53:37.420Z,62.47
2018-09-27T03:56:06.068Z,62.11
2018-09-27T03:58:34.604Z,62.04
2018-09-27T04:01:03.156Z,60.55
2018-09-27T04:03:31.712Z,60.04
2018-09-27T04:06:00.267Z,60.58
2018-09-27T04:08:28.808Z,59.82
2018-09-27T04:10:57.501Z,60.33
2018-09-27T04:13:26.060Z,59.89
2018-09-27T04:15:54.713Z,60.19
2018-09-27T04:18:23.438Z,59.95
2018-09-27T04:20:52.867Z,60.09
2018-09-27T04:23:24.303Z,60.24
2018-09-27T04:25:53.039Z,61.17
2018-09-27T04:28:22.213Z,61.00
2018-09-27T04:30:50.808Z,61.70
2018-09-27T04:33:19.389Z,61.64
2018-09-27T04:35:48.012Z,61.76
2018-09-27T04:38:16.567Z,62.46
2018-09-27T04:40:45.166Z,62.54
2018-09-27T04:43:13.839Z,62.17
2018-09-27T04:45:42.456Z,62.03
2018-09-27T04:48:11.091Z,62.15
2018-09-27T04:50:39.621Z,62.29
2018-09-27T04:53:08.164Z,62.04
2018-09-27T04:55:36.788Z,62.26
2018-09-27T04:58:05.359Z,61.61
2018-09-27T05:00:33.883Z,62.29
2018-09-27T05:03:02.427Z,63.03
2018-09-27T05:05:30.984Z,63.28
2018-09-27T05:07:59.529Z,62.77
2018-09-27T05:10:28.060Z,62.38
2018-09-27T05:12:56.615Z,62.83
2018-09-27T05:15:25.236Z,61.90
2018-09-27T05:17:53.743Z,61.98
2018-09-27T05:20:23.199Z,62.32
2018-09-27T05:22:51.808Z,62.45
2018-09-27T05:25:20.347Z,62.67
2018-09-27T05:27:48.896Z,62.55
2018-09-27T05:30:17.523Z,62.79
2018-09-27T05:32:46.060Z,63.03
2018-09-27T05:35:14.637Z,62.86
2018-09-27T05:37:43.207Z,62.84
2018-09-27T05:40:11.783Z,62.20
2018-09-27T05:42:40.392Z,61.17
2018-09-27T05:45:09.003Z,61.77
2018-09-27T05:47:37.563Z,61.92
2018-09-27T05:50:07.185Z,61.23
2018-09-27T05:52:35.834Z,60.70
2018-09-27T05:55:04.458Z,61.31
2018-09-27T05:57:33.046Z,61.67
2018-09-27T06:00:01.568Z,61.52
2018-09-27T06:02:30.792Z,61.21
2018-09-27T06:05:00.560Z,61.12
2018-09-27T06:07:29.120Z,61.34
2018-09-27T06:09:57.699Z,61.18
2018-09-27T06:12:27.300Z,60.35
2018-09-27T06:14:55.848Z,60.63
2018-09-27T06:17:24.380Z,60.67
2018-09-27T06:19:53.029Z,59.81
2018-09-27T06:22:21.521Z,59.63
2018-09-27T06:24:50.088Z,58.64
2018-09-27T06:27:18.620Z,58.51
2018-09-27T06:29:47.159Z,59.36
2018-09-27T06:32:15.765Z,60.51
2018-09-27T06:34:44.871Z,60.31
2018-09-27T06:37:13.438Z,60.49
2018-09-27T06:39:41.973Z,61.01
2018-09-27T06:42:10.535Z,60.52
2018-09-27T06:44:39.111Z,60.95
2018-09-27T06:47:07.756Z,59.89
2018-09-27T06:49:36.293Z,60.18
2018-09-27T06:52:04.864Z,60.10
2018-09-27T06:54:33.504Z,59.75
2018-09-27T06:57:02.036Z,60.03
2018-09-27T06:59:30.595Z,60.20
2018-09-27T07:01:59.168Z,60.83
2018-09-27T07:04:27.732Z,60.18
2018-09-27T07:06:56.260Z,60.15
2018-09-27T07:09:24.784Z,60.94
2018-09-27T07:11:53.329Z,59.52
2018-09-27T07:14:21.917Z,59.39
2018-09-27T07:16:50.436Z,59.50
2018-09-27T08:26:21.259Z,49.68
2018-09-27T08:28:49.784Z,47.46
2018-09-27T08:31:18.409Z,49.58
2018-09-27T08:33:46.931Z,48.14
2018-09-27T08:36:15.484Z,47.51
2018-09-27T08:38:44.118Z,47.44
2018-09-27T08:41:12.765Z,47.46
2018-09-27T08:43:41.361Z,46.40
2018-09-27T08:46:09.928Z,45.18
2018-09-27T08:51:28.677Z,45.31
2018-09-27T08:53:58.153Z,44.96
2018-09-27T08:59:16.904Z,44.13
2018-09-27T09:01:45.427Z,43.36
2018-09-27T09:04:13.991Z,43.82
2018-09-27T09:06:42.537Z,42.26
2018-09-27T09:09:12.835Z,42.78
2018-09-27T09:11:41.457Z,43.13
2018-09-27T09:14:11.023Z,39.79
2018-09-27T09:16:39.575Z,41.36
2018-09-27T09:19:08.106Z,39.72
2018-09-27T09:21:36.697Z,39.23
2018-09-27T09:24:06.150Z,37.88
2018-09-27T09:26:34.678Z,39.14
2018-09-27T09:29:03.197Z,39.70
2018-09-27T09:31:31.728Z,39.64
2018-09-27T09:34:00.271Z,39.43
2018-09-27T09:36:28.857Z,38.45
2018-09-27T09:38:57.391Z,38.14
2018-09-27T09:41:25.916Z,35.99
2018-09-27T09:43:54.491Z,36.67
2018-09-27T09:46:23.068Z,36.23
2018-09-27T09:48:51.601Z,34.42
2018-09-27T09:51:20.667Z,32.05
2018-09-27T09:53:49.181Z,31.72
2018-09-27T09:56:17.788Z,31.48
2018-09-27T09:58:46.319Z,32.63
2018-09-27T10:01:14.873Z,30.81
2018-09-27T10:03:43.469Z,31.12
2018-09-27T10:06:12.380Z,31.70
2018-09-27T10:08:41.057Z,29.49
2018-09-27T10:11:09.630Z,30.71
2018-09-27T10:13:38.172Z,32.29
2018-09-27T10:16:06.723Z,34.44
2018-09-27T10:18:35.256Z,34.56
2018-09-27T10:21:10.089Z,35.18
2018-09-27T10:23:43.247Z,36.77
2018-09-27T10:26:11.808Z,37.71
2018-09-27T10:28:40.376Z,37.56
2018-09-27T10:31:09.077Z,38.98
2018-09-27T10:33:37.645Z,38.72
2018-09-27T10:36:06.182Z,41.54
2018-09-27T10:38:34.809Z,41.42
2018-09-27T10:41:03.404Z,41.56
2018-09-27T10:43:31.932Z,41.37
2018-09-27T10:46:00.480Z,39.93
2018-09-27T10:48:29.361Z,38.29
2018-09-27T10:50:57.900Z,39.58
2018-09-27T10:53:26.556Z,38.18
2018-09-27T10:55:55.154Z,39.55
2018-09-27T10:58:24.016Z,37.19
2018-09-27T11:00:52.597Z,39.18
2018-09-27T11:03:21.183Z,37.89
2018-09-27T11:05:49.759Z,39.03
2018-09-27T11:08:18.323Z,38.78
2018-09-27T11:10:46.844Z,37.82
2018-09-27T11:13:15.522Z,38.58
2018-09-27T11:15:44.119Z,36.50
2018-09-27T11:18:12.683Z,35.99
2018-09-27T11:20:41.227Z,37.74
2018-09-27T11:23:09.765Z,37.35
2018-09-27T11:25:38.296Z,37.00
2018-09-27T11:28:06.963Z,36.29
2018-09-27T11:30:35.905Z,36.69
2018-09-27T11:33:04.621Z,36.87
2018-09-27T11:35:33.260Z,36.93
2018-09-27T11:38:01.820Z,37.80
2018-09-27T11:40:30.405Z,36.66
2018-09-27T11:42:59.077Z,36.61
2018-09-27T11:45:27.633Z,36.08
2018-09-27T11:47:56.264Z,36.38
2018-09-27T11:50:24.806Z,34.86
2018-09-27T11:52:53.386Z,36.27
2018-09-27T11:55:22.716Z,36.37
2018-09-27T11:57:51.250Z,35.86
2018-09-27T12:00:19.868Z,33.99
2018-09-27T12:02:48.410Z,35.01
2018-09-27T12:05:17.910Z,34.12
2018-09-27T12:07:46.435Z,34.57
2018-09-27T12:10:14.988Z,35.22
2018-09-27T12:12:43.797Z,34.56
2018-09-27T12:15:12.763Z,32.38
2018-09-27T12:17:41.392Z,33.07
2018-09-27T12:20:09.977Z,33.47
2018-09-27T12:22:38.529Z,34.77
2018-09-27T12:25:07.089Z,32.60
2018-09-27T12:27:35.656Z,33.30
2018-09-27T12:30:04.323Z,32.29
2018-09-27T12:32:32.849Z,33.28
2018-09-27T12:35:01.389Z,31.75
2018-09-27T12:37:29.959Z,32.71
2018-09-27T12:39:58.510Z,33.20
2018-09-27T12:42:27.154Z,33.79
2018-09-27T12:44:55.713Z,33.75
2018-09-27T12:47:24.291Z,33.86
2018-09-27T12:49:52.885Z,33.46
2018-09-27T12:52:21.545Z,32.17
2018-09-27T12:54:49.999Z,32.26
2018-09-27T12:57:18.574Z,32.05
2018-09-27T12:59:47.108Z,32.13
2018-09-27T13:02:15.846Z,31.05
2018-09-27T13:04:44.332Z,32.44
2018-09-27T13:07:12.936Z,32.98
2018-09-27T13:09:41.969Z,30.38
2018-09-27T13:12:10.695Z,31.42
2018-09-27T13:14:39.254Z,31.34
2018-09-27T13:17:08.115Z,30.85
2018-09-27T13:19:36.764Z,30.84
2018-09-27T13:22:05.296Z,30.99
2018-09-27T13:24:33.917Z,30.70
2018-09-27T13:27:02.491Z,29.71
2018-09-27T13:29:31.044Z,30.23
2018-09-27T13:31:59.626Z,29.67
2018-09-27T13:34:28.280Z,28.81
2018-09-27T13:36:56.894Z,30.35
2018-09-27T13:39:25.488Z,30.17
2018-09-27T13:41:54.119Z,30.48
2018-09-27T13:44:22.828Z,28.80
2018-09-27T13:46:51.364Z,30.11
2018-09-27T13:49:20.096Z,29.51
2018-09-27T13:51:48.682Z,28.13
2018-09-27T13:54:17.232Z,29.71
2018-09-27T13:56:45.813Z,28.85
2018-09-27T13:59:14.840Z,28.95
2018-09-27T14:01:43.366Z,29.05
2018-09-27T14:04:11.993Z,29.63
2018-09-27T14:06:40.619Z,26.88
2018-09-27T14:09:12.319Z,28.32
2018-09-27T14:11:42.123Z,27.61
2018-09-27T14:14:10.651Z,26.84
2018-09-27T14:16:39.281Z,27.07
2018-09-27T14:19:08.130Z,25.91
2018-09-27T14:21:36.892Z,25.61
2018-09-27T14:24:05.430Z,26.13
2018-09-27T14:26:33.992Z,26.54
2018-09-27T14:29:02.556Z,27.09
2018-09-27T14:31:31.538Z,26.04
2018-09-27T14:34:00.065Z,26.91
2018-09-27T14:36:28.657Z,26.21
2018-09-27T14:38:57.198Z,26.64
2018-09-27T14:41:25.753Z,26.49
2018-09-27T14:43:54.280Z,26.51
2018-09-27T14:46:22.899Z,26.22
2018-09-27T14:48:51.420Z,26.45
2018-09-27T14:51:20.047Z,25.24
2018-09-27T14:53:48.580Z,24.86
2018-09-27T14:56:17.192Z,24.42
2018-09-27T14:58:45.750Z,26.52
2018-09-27T15:01:14.295Z,24.68
2018-09-27T15:03:42.894Z,25.84
2018-09-27T15:06:11.513Z,26.30
2018-09-27T15:08:40.080Z,26.41
2018-09-27T15:11:08.672Z,25.40
2018-09-27T15:13:37.224Z,25.57
2018-09-27T15:16:05.768Z,26.56
2018-09-27T15:18:34.333Z,27.28
2018-09-27T15:21:02.936Z,27.44
2018-09-27T15:23:31.521Z,30.06
2018-09-27T15:26:00.292Z,27.50
2018-09-27T15:28:28.847Z,29.08
2018-09-27T15:30:57.419Z,33.11
2018-09-27T15:33:25.984Z,35.18
2018-09-27T15:35:54.688Z,36.41
2018-09-27T15:38:24.026Z,37.21
2018-09-27T15:40:52.596Z,38.39
2018-09-27T15:43:21.179Z,38.33
2018-09-27T15:45:49.812Z,38.83
2018-09-27T15:48:18.394Z,40.04
2018-09-27T15:50:46.913Z,40.64
2018-09-27T15:53:15.476Z,41.29
2018-09-27T15:55:44.024Z,41.62
2018-09-27T15:58:12.666Z,42.79
2018-09-27T16:00:41.211Z,43.12
2018-09-27T16:03:09.827Z,43.07
2018-09-27T16:05:38.396Z,43.60
2018-09-27T16:08:06.973Z,42.77
2018-09-27T16:10:35.797Z,44.65
2018-09-27T16:13:04.395Z,44.31
2018-09-27T16:15:32.921Z,44.57
2018-09-27T16:27:10.547Z,47.68
2018-09-27T16:29:39.222Z,47.18
2018-09-27T16:32:07.845Z,47.32
2018-09-27T16:34:36.683Z,47.83
2018-09-27T16:37:05.756Z,46.59
2018-09-27T16:39:34.926Z,45.85
2018-09-27T16:42:03.570Z,45.26
2018-09-27T16:44:32.200Z,45.15
2018-09-27T16:47:00.936Z,45.47
2018-09-27T16:49:29.744Z,45.38
2018-09-27T16:51:58.344Z,45.46
2018-09-27T16:54:27.012Z,45.44
2018-09-27T17:33:29.657Z,47.79
2018-09-27T17:35:58.258Z,48.87
2018-09-27T17:38:27.232Z,48.28
2018-09-27T17:40:55.815Z,48.51
2018-09-27T17:43:24.493Z,47.74
2018-09-27T17:45:53.269Z,48.02
2018-09-27T17:48:21.788Z,47.80
2018-09-27T17:50:50.407Z,48.17
2018-09-27T17:53:19.023Z,48.86
2018-09-27T17:55:47.576Z,48.39
2018-09-27T17:58:16.110Z,48.47
2018-09-27T18:00:44.941Z,48.70
2018-09-27T18:03:13.523Z,49.23
2018-09-27T18:05:42.559Z,49.69
2018-09-27T18:08:11.371Z,49.88
2018-09-27T18:10:40.011Z,49.33
2018-09-27T18:13:08.746Z,49.17
2018-09-27T18:15:37.731Z,49.73
2018-09-27T18:18:06.311Z,50.48
2018-09-27T18:20:34.920Z,50.29
2018-09-27T18:23:03.538Z,51.31
2018-09-27T18:25:32.275Z,50.51
2018-09-27T18:28:00.915Z,50.39
2018-09-27T18:30:30.564Z,50.49
2018-09-27T18:32:59.129Z,50.53
2018-09-27T18:35:27.677Z,50.92
2018-09-27T18:37:56.304Z,51.52
2018-09-27T18:40:24.816Z,52.02
2018-09-27T18:42:53.429Z,51.85
2018-09-27T18:45:22.000Z,51.71
2018-09-27T18:47:50.536Z,51.01
2018-09-27T18:50:19.075Z,51.22
2018-09-27T18:52:48.505Z,51.12
2018-09-27T18:55:17.082Z,50.97
2018-09-27T18:57:45.657Z,51.25
2018-09-27T19:00:14.621Z,51.74
2018-09-27T19:02:49.694Z,52.39
2018-09-27T19:05:18.255Z,52.58
2018-09-27T19:07:46.883Z,52.28
2018-09-27T19:10:15.429Z,52.52
2018-09-27T19:12:44.070Z,52.13
2018-09-27T19:15:13.015Z,52.08
2018-09-27T19:17:41.677Z,51.84
2018-09-27T19:20:10.239Z,52.12
2018-09-27T19:22:38.881Z,53.16
2018-09-27T19:25:07.496Z,54.03
2018-09-27T19:27:36.223Z,53.98
2018-09-27T19:30:04.948Z,54.43
2018-09-27T19:32:33.471Z,54.36
2018-09-27T19:35:02.462Z,53.84
2018-09-27T19:37:31.115Z,54.40
2018-09-27T19:40:00.671Z,53.77
2018-09-27T19:42:29.231Z,53.78
2018-09-27T19:44:57.758Z,53.84
2018-09-27T19:47:26.368Z,53.61
2018-09-27T19:49:54.944Z,53.44
2018-09-27T19:52:23.608Z,53.33
2018-09-27T19:54:52.271Z,53.35
2018-09-27T19:57:20.900Z,53.48
2018-09-27T19:59:50.444Z,53.25
2018-09-27T20:02:19.846Z,53.05
2018-09-27T20:04:48.412Z,54.01
2018-09-27T20:07:17.017Z,54.61
2018-09-27T20:09:45.622Z,54.96
2018-09-27T20:12:14.208Z,55.33
2018-09-27T20:14:42.769Z,55.59
2018-09-27T20:17:11.330Z,55.02
2018-09-27T20:19:39.864Z,54.79
2018-09-27T20:22:09.712Z,54.66
2018-09-27T20:24:38.403Z,55.29
2018-09-27T20:27:07.301Z,55.72
2018-09-27T20:29:35.909Z,55.75
2018-09-27T20:32:04.716Z,55.98
2018-09-27T20:34:34.060Z,55.76
2018-09-27T20:37:02.711Z,54.19
2018-09-27T20:39:31.282Z,55.35
2018-09-27T20:41:59.817Z,55.53
2018-09-27T20:44:28.492Z,55.50
2018-09-27T20:46:57.070Z,55.50
2018-09-27T20:49:25.628Z,55.20
2018-09-27T20:51:54.176Z,55.05
2018-09-27T20:54:22.743Z,55.54
2018-09-27T20:56:51.321Z,55.94
2018-09-27T20:59:19.889Z,55.34
2018-09-27T21:01:48.542Z,55.29
2018-09-27T21:04:17.376Z,55.70
2018-09-27T21:06:46.032Z,55.23
2018-09-27T21:09:14.990Z,55.44
2018-09-27T21:11:43.763Z,55.30
2018-09-27T21:14:12.707Z,55.67
2018-09-27T21:16:41.583Z,55.68
2018-09-27T21:19:10.519Z,55.31
2018-09-27T21:21:40.121Z,55.85
2018-09-27T21:24:09.741Z,56.04
2018-09-27T21:26:38.326Z,56.36
2018-09-27T21:29:07.874Z,56.52
2018-09-27T21:31:36.432Z,55.59
2018-09-27T21:34:05.334Z,56.18
2018-09-27T21:36:33.888Z,55.27
2018-09-27T21:39:02.923Z,54.81
2018-09-27T21:41:31.674Z,54.59
2018-09-27T21:44:00.258Z,54.88
2018-09-27T21:46:28.812Z,55.06
2018-09-27T21:48:57.363Z,54.15
2018-09-27T21:51:25.918Z,54.89
2018-09-27T21:53:54.448Z,54.51
2018-09-27T21:56:23.048Z,54.52
2018-09-27T21:58:51.592Z,55.28
2018-09-27T22:01:20.132Z,55.14
2018-09-27T22:03:48.696Z,54.14
2018-09-27T22:06:17.280Z,53.34
2018-09-27T22:08:45.813Z,53.41
2018-09-27T22:11:14.437Z,52.70
2018-09-27T22:13:42.979Z,53.36
2018-09-27T22:16:11.547Z,52.68
2018-09-27T22:27:48.947Z,52.49
2018-09-27T22:30:17.551Z,52.63
2018-09-27T22:32:46.120Z,52.75
2018-09-27T22:35:14.704Z,52.13
2018-09-27T22:37:43.331Z,52.31
2018-09-27T22:40:11.920Z,51.86
2018-09-27T22:42:41.391Z,51.96
2018-09-27T22:45:10.691Z,52.12
2018-09-27T22:47:39.321Z,52.39
2018-09-27T22:50:07.950Z,51.71
2018-09-27T22:52:36.732Z,51.55
2018-09-27T22:55:05.521Z,51.49
2018-09-27T22:57:34.984Z,51.98
2018-09-27T23:00:03.647Z,52.16
2018-09-27T23:02:32.176Z,52.12
2018-09-27T23:05:00.683Z,52.45
2018-09-27T23:07:29.579Z,52.97
2018-09-27T23:09:58.207Z,52.54
2018-09-27T23:12:26.747Z,51.74
2018-09-27T23:14:55.261Z,51.93
2018-09-27T23:17:23.824Z,51.66
2018-09-27T23:19:52.344Z,52.50
2018-09-27T23:22:20.884Z,52.05
2018-09-27T23:24:49.443Z,52.15
2018-09-27T23:27:18.001Z,51.69
2018-09-27T23:29:46.561Z,51.32
2018-09-27T23:32:15.180Z,52.25
2018-09-27T23:34:43.725Z,52.69
2018-09-27T23:37:12.303Z,52.96
2018-09-27T23:39:44.013Z,52.83
2018-09-27T23:42:12.590Z,53.04
2018-09-27T23:44:41.127Z,53.22
2018-09-27T23:47:09.700Z,53.32
2018-09-27T23:49:38.296Z,53.11
2018-09-27T23:52:06.957Z,52.86
2018-09-27T23:54:35.811Z,53.52
2018-09-27T23:57:04.452Z,52.61
2018-09-27T23:59:32.993Z,53.44
